createdAt,value
2024-01-28T00:00:26.542Z,99.90
2024-01-28T00:02:56.921Z,100.00
2024-01-28T00:05:27.152Z,100.00
2024-01-28T00:07:57.289Z,99.26
2024-01-28T00:10:27.421Z,99.01
2024-01-28T00:12:57.664Z,99.60
2024-01-28T00:15:28.033Z,100.00
2024-01-28T00:17:58.183Z,100.00
2024-01-28T00:20:28.435Z,99.86
2024-01-28T00:22:58.540Z,99.90
2024-01-28T00:25:28.641Z,100.00
2024-01-28T00:27:58.795Z,99.91
2024-01-28T00:30:29.273Z,99.91
2024-01-28T00:32:59.835Z,99.50
2024-01-28T00:35:30.174Z,100.00
2024-01-28T00:38:00.405Z,100.00
2024-01-28T00:40:30.717Z,100.00
2024-01-28T00:43:00.824Z,100.00
2024-01-28T00:45:31.359Z,100.00
2024-01-28T00:48:01.583Z,100.00
2024-01-28T00:50:32.139Z,100.00
2024-01-28T00:53:02.237Z,100.00
2024-01-28T00:55:32.678Z,99.60
2024-01-28T00:58:03.014Z,99.60
2024-01-28T01:00:33.472Z,99.51
2024-01-28T01:03:04.437Z,100.00
2024-01-28T01:05:34.951Z,100.00
2024-01-28T01:08:05.517Z,100.00
2024-01-28T01:10:35.819Z,100.00
2024-01-28T01:13:06.154Z,100.00
2024-01-28T01:15:36.494Z,100.00
2024-01-28T01:18:06.911Z,100.00
2024-01-28T01:20:37.222Z,100.00
2024-01-28T01:23:07.632Z,100.00
2024-01-28T01:25:37.806Z,99.57
2024-01-28T01:28:08.053Z,99.57
2024-01-28T01:30:38.437Z,99.85
2024-01-28T01:33:09.441Z,100.00
2024-01-28T01:35:39.716Z,99.83
2024-01-28T01:38:09.827Z,100.00
2024-01-28T01:40:39.858Z,100.00
2024-01-28T01:43:16.702Z,100.00
2024-01-28T01:45:47.917Z,99.75
2024-01-28T01:48:19.488Z,99.75
2024-01-28T01:50:50.774Z,99.68
2024-01-28T01:53:21.200Z,99.82
2024-01-28T01:55:51.528Z,100.00
2024-01-28T01:58:21.788Z,100.00
2024-01-28T02:00:52.590Z,99.94
2024-01-28T02:03:22.873Z,99.90
2024-01-28T02:05:53.062Z,99.90
2024-01-28T02:08:23.259Z,99.87
2024-01-28T02:10:54.733Z,99.38
2024-01-28T02:13:24.828Z,99.40
2024-01-28T02:15:54.921Z,99.73
2024-01-28T02:18:25.619Z,99.71
2024-01-28T02:20:55.914Z,99.79
2024-01-28T02:23:26.049Z,100.00
2024-01-28T02:25:56.213Z,99.95
2024-01-28T02:28:26.504Z,99.52
2024-01-28T02:30:56.666Z,99.56
2024-01-28T02:33:27.124Z,99.39
2024-01-28T02:35:57.663Z,100.00
2024-01-28T02:38:27.772Z,100.00
2024-01-28T02:40:57.884Z,100.00
2024-01-28T02:43:28.175Z,100.00
2024-01-28T02:45:58.486Z,99.72
2024-01-28T02:48:28.913Z,99.68
2024-01-28T02:50:59.048Z,99.41
2024-01-28T02:53:29.168Z,99.23
2024-01-28T02:55:59.218Z,99.62
2024-01-28T02:58:29.646Z,99.62
2024-01-28T03:01:00.058Z,100.00
2024-01-28T03:03:30.607Z,99.92
2024-01-28T03:06:00.838Z,99.79
2024-01-28T03:08:30.981Z,99.43
2024-01-28T03:11:01.306Z,99.46
2024-01-28T03:13:31.597Z,99.37
2024-01-28T03:16:02.081Z,98.95
2024-01-28T03:18:32.713Z,99.02
2024-01-28T03:21:02.819Z,99.05
2024-01-28T03:23:32.915Z,98.91
2024-01-28T03:26:03.030Z,98.91
2024-01-28T03:28:33.364Z,100.00
2024-01-28T03:31:03.773Z,100.00
2024-01-28T03:33:34.573Z,99.95
2024-01-28T03:36:05.208Z,99.27
2024-01-28T03:38:35.441Z,99.53
2024-01-28T03:41:05.646Z,99.54
2024-01-28T03:43:35.787Z,99.64
2024-01-28T03:46:10.232Z,99.60
2024-01-28T03:48:40.441Z,99.42
2024-01-28T03:51:10.638Z,99.52
2024-01-28T03:53:40.816Z,99.31
2024-01-28T03:56:11.059Z,99.47
2024-01-28T03:58:41.349Z,100.00
2024-01-28T04:01:11.522Z,100.00
2024-01-28T04:03:42.023Z,100.00
2024-01-28T04:06:12.174Z,100.00
2024-01-28T04:08:42.397Z,100.00
2024-01-28T04:11:12.523Z,100.00
2024-01-28T04:13:42.689Z,100.00
2024-01-28T04:16:12.803Z,100.00
2024-01-28T04:18:44.698Z,100.00
2024-01-28T04:21:15.285Z,100.00
2024-01-28T04:23:45.520Z,100.00
2024-01-28T04:26:15.761Z,100.00
2024-01-28T04:28:45.990Z,100.00
2024-01-28T04:31:16.092Z,100.00
2024-01-28T04:33:46.369Z,99.71
2024-01-28T04:36:16.583Z,100.00
2024-01-28T04:38:46.720Z,100.00
2024-01-28T04:41:16.903Z,99.80
2024-01-28T04:43:47.078Z,100.00
2024-01-28T04:46:17.301Z,100.00
2024-01-28T04:48:47.659Z,100.00
2024-01-28T04:51:18.003Z,100.00
2024-01-28T04:53:48.197Z,100.00
2024-01-28T04:56:18.432Z,99.71
2024-01-28T04:58:48.536Z,100.00
2024-01-28T05:01:19.278Z,100.00
2024-01-28T05:03:49.635Z,100.00
2024-01-28T05:06:20.096Z,100.00
2024-01-28T05:08:50.505Z,99.76
2024-01-28T05:11:20.770Z,100.00
2024-01-28T05:13:50.836Z,99.90
2024-01-28T05:16:21.013Z,100.00
2024-01-28T05:18:51.643Z,99.99
2024-01-28T05:21:22.072Z,99.99
2024-01-28T05:23:52.253Z,100.00
2024-01-28T05:26:22.692Z,99.89
2024-01-28T05:28:52.777Z,100.00
2024-01-28T05:31:22.838Z,100.00
2024-01-28T05:33:53.203Z,100.00
2024-01-28T05:36:23.883Z,100.00
2024-01-28T05:38:54.224Z,100.00
2024-01-28T05:41:24.703Z,99.93
2024-01-28T05:43:54.862Z,99.93
2024-01-28T05:46:25.075Z,100.00
2024-01-28T05:48:55.385Z,100.00
2024-01-28T05:51:25.653Z,100.00
2024-01-28T05:54:01.639Z,100.00
2024-01-28T05:56:33.812Z,99.65
2024-01-28T05:59:04.755Z,99.65
2024-01-28T06:01:34.932Z,99.57
2024-01-28T06:04:05.388Z,99.83
2024-01-28T06:06:35.773Z,100.00
2024-01-28T06:09:06.174Z,100.00
2024-01-28T06:11:36.415Z,99.48
2024-01-28T06:14:06.528Z,100.00
2024-01-28T06:16:36.688Z,100.00
2024-01-28T06:19:06.968Z,100.00
2024-01-28T06:21:37.336Z,100.00
2024-01-28T06:24:07.804Z,99.51
2024-01-28T06:26:37.985Z,99.68
2024-01-28T06:29:08.296Z,100.00
2024-01-28T06:31:38.481Z,100.00
2024-01-28T06:34:08.679Z,100.00
2024-01-28T06:36:38.950Z,100.00
2024-01-28T06:39:09.364Z,98.90
2024-01-28T06:41:39.576Z,98.91
2024-01-28T06:44:12.516Z,98.85
2024-01-28T06:46:42.700Z,98.76
2024-01-28T06:49:15.881Z,98.21
2024-01-28T06:51:44.844Z,98.45
2024-01-28T06:54:15.307Z,98.78
2024-01-28T06:56:45.551Z,98.40
2024-01-28T06:59:16.377Z,98.52
2024-01-28T07:01:46.953Z,98.49
2024-01-28T07:04:17.171Z,98.60
2024-01-28T07:06:47.677Z,98.87
2024-01-28T07:09:17.942Z,98.52
2024-01-28T07:11:48.185Z,98.34
2024-01-28T07:14:18.569Z,98.02
2024-01-28T07:16:49.120Z,97.60
2024-01-28T07:19:19.435Z,97.60
2024-01-28T07:21:51.045Z,96.82
2024-01-28T07:24:21.544Z,97.43
2024-01-28T07:26:51.985Z,98.35
2024-01-28T07:29:22.167Z,98.35
2024-01-28T07:31:54.843Z,97.20
2024-01-28T07:34:39.861Z,96.88
2024-01-28T07:37:11.518Z,96.88
2024-01-28T07:39:43.224Z,97.68
2024-01-28T07:42:13.589Z,97.46
2024-01-28T07:44:46.683Z,97.46
2024-01-28T07:47:20.017Z,97.23
2024-01-28T07:49:53.360Z,96.82
2024-01-28T07:55:34.458Z,97.00
2024-01-28T07:58:04.904Z,96.50
2024-01-28T08:00:35.393Z,96.25
2024-01-28T08:03:05.996Z,96.25
2024-01-28T08:05:38.144Z,96.90
2024-01-28T08:08:08.753Z,97.08
2024-01-28T08:10:40.999Z,96.93
2024-01-28T08:13:11.406Z,96.89
2024-01-28T08:15:44.670Z,97.67
2024-01-28T09:58:46.574Z,99.21
2024-01-28T10:01:16.813Z,98.52
2024-01-28T10:03:47.802Z,98.34
2024-01-28T10:06:18.271Z,98.10
2024-01-28T10:08:48.917Z,97.63
2024-01-28T10:11:46.919Z,97.63
2024-01-28T10:14:17.231Z,97.97
2024-01-28T10:16:48.682Z,97.97
2024-01-28T10:19:18.925Z,98.60
2024-01-28T10:21:49.584Z,98.60
2024-01-28T10:24:23.721Z,98.17
2024-01-28T10:26:55.466Z,97.92
2024-01-28T10:29:37.935Z,97.67
2024-01-28T10:32:08.308Z,99.37
2024-01-28T10:34:40.062Z,98.46
2024-01-28T10:37:12.471Z,98.46
2024-01-28T10:39:44.789Z,98.20
2024-01-28T10:42:17.910Z,98.20
2024-01-28T10:45:08.755Z,99.56
2024-01-28T10:47:47.949Z,99.85
2024-01-28T10:50:20.718Z,99.26
2024-01-28T10:52:54.680Z,98.45
2024-01-28T10:55:27.907Z,98.45
2024-01-28T10:58:02.571Z,99.43
2024-01-28T11:00:33.438Z,99.43
2024-01-28T11:03:05.784Z,99.82
2024-01-28T11:05:39.442Z,99.65
2024-01-28T11:11:01.512Z,98.89
2024-01-28T11:13:34.025Z,97.77
2024-01-28T11:16:10.674Z,97.77
2024-01-28T11:18:41.579Z,99.44
2024-01-28T11:21:13.587Z,99.44
2024-01-28T11:23:50.935Z,99.90
2024-01-28T11:26:23.840Z,99.90
2024-01-28T11:28:58.366Z,98.55
2024-01-28T11:31:35.756Z,98.46
2024-01-28T11:34:19.931Z,98.55
2024-01-28T11:36:54.960Z,98.28
2024-01-28T11:39:40.547Z,98.05
2024-01-28T11:42:11.885Z,98.65
2024-01-28T11:44:49.827Z,98.65
2024-01-28T11:47:23.411Z,98.18
2024-01-28T11:49:54.521Z,97.80
2024-01-28T11:52:25.178Z,98.00
2024-01-28T11:54:55.515Z,98.52
2024-01-28T11:57:26.178Z,98.07
2024-01-28T11:59:56.571Z,97.77
2024-01-28T12:02:27.997Z,97.77
2024-01-28T12:04:58.590Z,97.77
2024-01-28T12:07:30.659Z,97.80
2024-01-28T12:10:13.243Z,98.82
2024-01-28T12:12:53.384Z,97.88
2024-01-28T12:15:25.745Z,97.72
2024-01-28T12:18:00.509Z,97.72
2024-01-28T12:20:32.828Z,97.85
2024-01-28T12:23:03.324Z,97.50
2024-01-28T12:25:57.485Z,97.50
2024-01-28T12:28:40.116Z,97.38
2024-01-28T12:31:21.656Z,97.10
2024-01-28T12:33:52.581Z,97.32
2024-01-28T12:36:29.224Z,97.35
2024-01-28T12:39:01.386Z,97.35
2024-01-28T12:41:46.085Z,97.37
2024-01-28T12:44:16.516Z,97.55
2024-01-28T12:46:54.086Z,98.70
2024-01-28T12:49:24.530Z,98.70
2024-01-28T12:52:09.808Z,99.67
2024-01-28T12:54:45.689Z,98.90
2024-01-28T13:05:57.516Z,97.86
2024-01-28T13:08:27.832Z,97.86
2024-01-28T13:11:02.748Z,98.35
2024-01-28T13:13:46.738Z,98.82
2024-01-28T13:16:19.576Z,98.82
2024-01-28T13:18:50.475Z,98.30
2024-01-28T13:21:22.285Z,99.66
2024-01-28T13:23:52.650Z,99.25
2024-01-28T13:26:23.280Z,97.82
2024-01-28T13:28:53.617Z,98.33
2024-01-28T13:31:29.296Z,98.65
2024-01-28T13:33:59.513Z,98.97
2024-01-28T13:36:30.162Z,98.19
2024-01-28T13:39:01.096Z,98.19
2024-01-28T13:41:35.227Z,97.23
2024-01-28T13:44:08.347Z,97.23
2024-01-28T13:46:39.145Z,97.19
2024-01-28T13:49:09.692Z,97.54
2024-01-28T13:52:01.278Z,97.54
2024-01-28T13:54:32.392Z,97.96
2024-01-28T13:57:02.989Z,98.52
2024-01-28T13:59:33.950Z,98.52
2024-01-28T14:02:04.350Z,98.63
2024-01-28T14:04:34.996Z,98.35
2024-01-28T14:07:05.778Z,98.13
2024-01-28T14:09:36.029Z,98.13
2024-01-28T14:12:06.811Z,99.46
2024-01-28T14:14:37.261Z,97.70
2024-01-28T14:17:10.431Z,97.70
2024-01-28T14:19:41.077Z,97.88
2024-01-28T14:22:11.479Z,98.24
2024-01-28T14:24:42.096Z,98.25
2024-01-28T14:27:12.559Z,97.71
2024-01-28T14:29:48.814Z,97.96
2024-01-28T14:32:21.325Z,98.30
2024-01-28T14:34:53.431Z,98.92
2024-01-28T14:37:27.804Z,98.92
2024-01-28T14:39:58.581Z,98.90
2024-01-28T14:42:34.270Z,98.49
2024-01-28T14:45:11.294Z,99.10
2024-01-28T14:50:39.832Z,98.64
2024-01-28T14:53:12.096Z,98.64
2024-01-28T14:55:48.388Z,98.88
2024-01-28T14:58:20.269Z,100.00
2024-01-28T15:00:51.024Z,99.79
2024-01-28T15:03:21.849Z,99.79
2024-01-28T15:05:53.085Z,98.53
2024-01-28T15:08:23.601Z,98.30
2024-01-28T15:10:58.412Z,99.02
2024-01-28T15:13:29.384Z,99.15
2024-01-28T15:16:30.225Z,98.94
2024-01-28T15:19:17.289Z,98.22
2024-01-28T15:22:07.895Z,98.18
2024-01-28T15:24:27.799Z,99.04
2024-01-28T15:27:00.564Z,99.04
2024-01-28T15:29:47.842Z,99.15
2024-01-28T15:32:24.355Z,98.87
2024-01-28T15:35:08.711Z,98.52
2024-01-28T15:37:40.185Z,98.73
2024-01-28T15:40:36.199Z,98.73
2024-01-28T15:43:09.683Z,98.70
2024-01-28T15:45:43.092Z,99.10
2024-01-28T15:48:23.090Z,98.83
2024-01-28T15:50:57.428Z,98.73
2024-01-28T15:53:31.144Z,98.92
2024-01-28T15:56:10.182Z,98.92
2024-01-28T15:58:40.802Z,98.75
2024-01-28T16:01:11.528Z,99.26
2024-01-28T16:03:46.367Z,99.26
2024-01-28T16:06:31.989Z,99.03
2024-01-28T16:09:02.540Z,99.23
2024-01-28T16:11:33.508Z,99.29
2024-01-28T16:14:09.048Z,99.71
2024-01-28T16:16:41.745Z,99.90
2024-01-28T16:19:15.135Z,100.00
2024-01-28T16:21:46.005Z,99.68
2024-01-28T16:24:18.467Z,99.02
2024-01-28T16:26:54.260Z,99.02
2024-01-28T16:29:36.932Z,99.88
2024-01-28T16:32:24.124Z,100.00
2024-01-28T16:35:08.169Z,100.00
2024-01-28T16:37:33.983Z,100.00
2024-01-28T16:40:07.177Z,98.82
2024-01-28T16:42:53.220Z,98.82
2024-01-28T16:45:26.548Z,98.82
2024-01-28T16:48:03.225Z,98.33
2024-01-28T16:50:35.556Z,98.52
2024-01-28T16:53:16.185Z,97.79
2024-01-28T16:55:51.052Z,98.32
2024-01-28T16:58:29.465Z,98.63
2024-01-28T17:01:01.110Z,98.12
2024-01-28T17:03:54.327Z,99.19
2024-01-28T17:06:27.973Z,99.19
2024-01-28T17:09:30.353Z,98.02
2024-01-28T17:12:02.271Z,99.20
2024-01-28T17:14:38.865Z,98.53
2024-01-28T17:17:21.846Z,98.42
2024-01-28T17:20:12.637Z,98.35
2024-01-28T17:22:43.121Z,98.35
2024-01-28T17:25:22.607Z,98.35
2024-01-28T17:27:55.669Z,99.79
2024-01-28T17:30:30.160Z,98.89
2024-01-28T17:33:00.726Z,98.61
2024-01-28T17:35:34.059Z,98.61
2024-01-28T17:38:04.583Z,98.36
2024-01-28T17:40:37.869Z,98.36
2024-01-28T17:43:08.331Z,98.40
2024-01-28T17:45:40.354Z,98.52
2024-01-28T17:48:13.608Z,98.30
2024-01-28T17:50:44.472Z,98.30
2024-01-28T17:53:19.130Z,98.12
2024-01-28T17:55:53.077Z,99.40
2024-01-28T17:58:44.262Z,99.50
2024-01-28T18:01:14.650Z,98.37
2024-01-28T18:03:49.472Z,98.37
2024-01-28T18:06:21.206Z,98.65
2024-01-28T18:08:52.901Z,98.10
2024-01-28T18:11:29.133Z,98.56
2024-01-28T18:14:05.136Z,98.56
2024-01-28T18:16:37.892Z,98.15
2024-01-28T18:19:17.426Z,98.11
2024-01-28T18:21:50.688Z,99.60
2024-01-28T18:24:21.333Z,99.46
2024-01-28T18:26:53.493Z,98.40
2024-01-28T18:29:45.654Z,98.28
2024-01-28T18:32:24.084Z,98.42
2024-01-28T18:35:01.330Z,98.42
2024-01-28T18:37:38.660Z,99.93
2024-01-28T18:40:17.962Z,99.62
2024-01-28T18:42:50.080Z,98.75
2024-01-28T18:45:23.931Z,99.47
2024-01-28T18:47:56.003Z,100.00
2024-01-28T18:50:45.409Z,100.00
2024-01-28T18:53:06.323Z,99.43
2024-01-28T18:58:40.177Z,99.48
2024-01-28T19:01:21.983Z,99.00
2024-01-28T19:03:53.287Z,99.00
2024-01-28T19:06:26.395Z,98.96
2024-01-28T19:08:59.317Z,98.30
2024-01-28T19:11:31.198Z,98.47
2024-01-28T19:14:01.576Z,98.53
2024-01-28T19:16:37.554Z,98.53
2024-01-28T19:19:13.259Z,98.23
2024-01-28T19:21:46.219Z,98.23
2024-01-28T19:24:17.103Z,97.67
2024-01-28T19:26:50.192Z,98.36
2024-01-28T19:29:21.272Z,98.98
2024-01-28T19:31:54.664Z,99.96
2024-01-28T19:34:24.893Z,99.58
2024-01-28T19:36:56.704Z,99.18
2024-01-28T19:39:28.260Z,99.21
2024-01-28T19:42:07.007Z,99.38
2024-01-28T19:44:41.263Z,99.38
2024-01-28T19:47:13.083Z,98.55
2024-01-28T19:49:43.713Z,98.93
2024-01-28T19:52:14.150Z,98.16
2024-01-28T19:54:45.405Z,99.43
2024-01-28T19:57:15.635Z,98.82
2024-01-28T19:59:46.032Z,98.24
2024-01-28T20:02:18.544Z,98.24
2024-01-28T20:04:55.435Z,98.77
2024-01-28T20:07:24.542Z,99.13
2024-01-28T20:10:08.750Z,99.38
2024-01-28T20:12:48.083Z,99.35
2024-01-28T20:15:25.487Z,99.35
2024-01-28T20:17:54.590Z,99.53
2024-01-28T20:20:39.027Z,99.53
2024-01-28T20:23:02.576Z,99.00
2024-01-28T20:25:35.858Z,98.98
2024-01-28T20:28:06.291Z,99.13
2024-01-28T20:30:38.194Z,99.73
2024-01-28T20:33:08.702Z,99.73
2024-01-28T20:35:41.982Z,98.73
2024-01-28T20:38:12.491Z,99.41
2024-01-28T20:40:44.142Z,99.36
2024-01-28T20:43:14.843Z,98.63
2024-01-28T20:45:45.048Z,98.64
2024-01-28T20:48:16.166Z,98.64
2024-01-28T20:50:46.494Z,98.91
2024-01-28T20:53:18.254Z,98.94
2024-01-28T20:55:50.051Z,98.94
2024-01-28T20:58:20.412Z,98.75
2024-01-28T21:00:51.003Z,98.75
2024-01-28T21:03:21.475Z,98.65
2024-01-28T21:05:52.005Z,99.21
2024-01-28T21:08:22.118Z,98.18
2024-01-28T21:10:55.652Z,99.90
2024-01-28T21:13:26.037Z,99.90
2024-01-28T21:15:56.496Z,99.64
2024-01-28T21:18:30.121Z,99.89
2024-01-28T21:21:00.754Z,99.89
2024-01-28T21:23:31.270Z,99.39
2024-01-28T21:26:02.058Z,99.30
2024-01-28T21:28:34.064Z,99.30
2024-01-28T21:31:07.232Z,99.30
2024-01-28T21:33:37.465Z,99.30
2024-01-28T21:36:10.101Z,100.00
2024-01-28T21:38:40.243Z,99.48
2024-01-28T21:41:10.658Z,99.50
2024-01-28T21:43:43.376Z,99.05
2024-01-28T21:46:14.156Z,99.05
2024-01-28T21:48:44.377Z,99.04
2024-01-28T21:51:14.539Z,100.00
2024-01-28T21:53:44.889Z,99.08
2024-01-28T21:56:15.328Z,98.81
2024-01-28T21:58:45.584Z,98.81
2024-01-28T22:01:15.761Z,98.49
2024-01-28T22:03:46.122Z,98.49
2024-01-28T22:06:16.284Z,99.08
2024-01-28T22:08:47.985Z,99.08
2024-01-28T22:11:19.420Z,98.86
2024-01-28T22:13:49.568Z,99.84
2024-01-28T22:16:19.978Z,98.53
2024-01-28T22:18:50.435Z,99.45
2024-01-28T22:21:20.779Z,99.40
2024-01-28T22:23:51.335Z,99.20
2024-01-28T22:26:21.495Z,99.20
2024-01-28T22:28:51.820Z,98.71
2024-01-28T22:31:22.091Z,97.97
2024-01-28T22:33:52.546Z,97.87
2024-01-28T22:36:23.150Z,98.55
2024-01-28T22:38:53.534Z,98.55
2024-01-28T22:41:23.764Z,98.15
2024-01-28T22:43:54.028Z,98.35
2024-01-28T22:46:24.300Z,97.49
2024-01-28T22:48:54.517Z,97.43
2024-01-28T22:51:24.738Z,97.56
2024-01-28T22:53:55.040Z,98.23
2024-01-28T22:56:25.292Z,98.00
2024-01-28T22:58:55.378Z,97.14
2024-01-28T23:01:25.703Z,97.20
2024-01-28T23:03:57.328Z,96.72
2024-01-28T23:06:27.663Z,98.76
2024-01-28T23:08:57.731Z,99.29
2024-01-28T23:11:28.044Z,99.23
2024-01-28T23:13:58.314Z,99.23
2024-01-28T23:16:28.404Z,99.28
2024-01-28T23:18:59.046Z,98.60
2024-01-28T23:21:29.495Z,97.90
2024-01-28T23:24:00.501Z,97.58
2024-01-28T23:26:30.838Z,97.35
2024-01-28T23:29:02.217Z,97.25
2024-01-28T23:31:32.450Z,97.08
2024-01-28T23:34:03.283Z,97.08
2024-01-28T23:36:34.479Z,97.48
2024-01-28T23:39:04.760Z,97.67
2024-01-28T23:41:39.507Z,97.85
2024-01-28T23:44:10.163Z,97.85
2024-01-28T23:47:01.047Z,98.48
2024-01-28T23:49:32.478Z,98.48
2024-01-28T23:52:03.100Z,97.85
2024-01-28T23:54:33.729Z,97.85
2024-01-28T23:57:04.239Z,98.02
2024-01-28T23:59:34.590Z,98.27
